15分钟前
罗盘
风向 的 风向 的 风向 到 风向 320° Castres-Mazamet Airport 14/32
风: 8 千吨, 3 beaufort
0 500 1.500 3.000 5.000 8.000 10.000
FEW 3.500 ft
OVC 6.800 ft
METAR LFCK 201400Z AUTO 32008KT 290V350 9999 FEW035 OVC068 06/02 Q1029 NOSIG

METAR定义 | 嵌入

24小时趋势

航班类别VFRLIFR
温度6 °C-1 °C
风速10 千吨0 千吨
能见度10 公里+0 米

更多历史数据

下载我们的安卓应用程序

从你的主屏幕上轻松地访问你的航空天气。
只需一次付费,您就可以获得无广告的体验。

您会帮助我们保持Metar-Taf.com正常运行吗?
您的贡献有助于网站的进一步开发并支付费用。

没有更多广告

您是捐款5美元还是更多?然后,我们将永远不会再向您展示广告,这是我们永恒的感谢!
捐赠前先登录

METAR Castres-Mazamet Airport

Castres-Mazamet Airport是Castres/Mazamet,法国中的中型机场。 机场有{a,plural,=1{一条跑道} other{#跑道}}: 14/32

该报告是针对2022年1月20日 15:00, 当地时间上的Castres-Mazamet Airport所做的。

机场观察

风来自北西 (320°)方向,速度为8 千吨。 风向在西北西 (290°)和北 (350°)之间变化。

可见度为10 公里 或者更多。

有几云在3.500 ft的高度 和 乌云密布在6.800 ft的高度。 破损或更高的上限为6.800 ft。

温度为6 °C,阵风为2 °C。 露点为2 °C,相对湿度为76%。 海平面上的气压为1029 压力 (QNH)。

白天

今天,太阳从08:17升起,在17:45降落。 这适用于Castres-Mazamet Airport,世界夏令时可能有所不同。 当地时间与世界标准时间之间的时差为+1 小时。 当前,没有夏令时有效。

公司介绍

我们没有关于这个机场的公司信息。

体会

到Vliegles.nl去找飞行课程,跳伞和其他飞行体验。 浏览页面,了解Castres-Mazamet Airport附近所有可用的活动。 你也可以使用搜索功能来寻找你所在地附近的特定飞行课程、跳伞或其他飞行体验。

您是否要在网站上Castres-Mazamet Airport飞行的天气? 阅读更多   自由!